createdAt,value
2022-10-13T00:00:13.406Z,2.70
2022-10-13T00:02:39.706Z,2.70
2022-10-13T00:05:06.082Z,2.40
2022-10-13T00:07:32.402Z,2.70
2022-10-13T00:09:58.694Z,2.17
2022-10-13T00:12:24.991Z,2.60
2022-10-13T00:14:51.318Z,2.90
2022-10-13T00:17:17.633Z,2.80
2022-10-13T00:19:43.910Z,2.90
2022-10-13T00:22:10.214Z,2.63
2022-10-13T00:24:36.606Z,2.80
2022-10-13T00:27:02.949Z,2.40
2022-10-13T00:29:29.256Z,2.50
2022-10-13T00:31:55.541Z,2.90
2022-10-13T00:34:21.845Z,2.40
2022-10-13T00:36:48.156Z,2.57
2022-10-13T00:39:14.668Z,2.70
2022-10-13T00:41:41.025Z,2.70
2022-10-13T00:44:45.822Z,2.50
2022-10-13T00:47:12.191Z,2.60
2022-10-13T00:49:38.561Z,2.27
2022-10-13T00:52:04.869Z,2.70
2022-10-13T00:54:31.257Z,2.60
2022-10-13T00:56:57.670Z,2.67
2022-10-13T00:59:28.866Z,2.20
2022-10-13T01:01:56.220Z,2.30
2022-10-13T01:04:25.843Z,2.63
2022-10-13T01:06:54.718Z,2.60
2022-10-13T01:09:21.075Z,2.77
2022-10-13T01:12:08.083Z,2.23
2022-10-13T01:14:42.417Z,2.10
2022-10-13T01:17:42.521Z,2.60
2022-10-13T01:20:37.638Z,2.40
2022-10-13T01:23:38.155Z,2.30
2022-10-13T01:26:11.809Z,2.43
2022-10-13T01:28:46.910Z,2.40
2022-10-13T01:31:20.029Z,2.20
2022-10-13T01:34:17.303Z,2.80
2022-10-13T01:36:58.653Z,2.47
2022-10-13T01:39:32.022Z,2.47
2022-10-13T01:42:05.314Z,2.50
2022-10-13T01:44:34.461Z,2.00
2022-10-13T01:47:01.462Z,2.60
2022-10-13T01:49:31.340Z,2.30
2022-10-13T01:52:01.755Z,2.43
2022-10-13T01:54:28.072Z,2.57
2022-10-13T01:56:55.212Z,2.30
2022-10-13T01:59:22.663Z,2.60
2022-10-13T02:02:00.077Z,2.40
2022-10-13T02:04:43.915Z,2.27
2022-10-13T02:07:18.593Z,2.33
2022-10-13T02:09:47.870Z,2.20
2022-10-13T02:12:20.953Z,2.60
2022-10-13T02:14:48.480Z,2.30
2022-10-13T02:17:15.146Z,2.50
2022-10-13T02:19:41.562Z,2.37
2022-10-13T02:22:08.245Z,2.37
2022-10-13T02:24:34.612Z,2.10
2022-10-13T02:27:00.905Z,2.50
2022-10-13T02:29:27.282Z,2.30
2022-10-13T02:31:54.779Z,2.40
2022-10-13T02:34:21.082Z,2.80
2022-10-13T02:36:47.756Z,2.30
2022-10-13T02:39:14.170Z,2.30
2022-10-13T02:41:40.510Z,2.30
2022-10-13T02:44:07.128Z,2.20
2022-10-13T02:46:33.550Z,2.20
2022-10-13T02:48:59.875Z,2.33
2022-10-13T02:51:26.559Z,2.40
2022-10-13T02:53:52.884Z,2.70
2022-10-13T02:56:19.183Z,2.23
2022-10-13T02:58:45.486Z,2.27
2022-10-13T03:01:14.404Z,2.40
2022-10-13T03:03:40.995Z,2.30
2022-10-13T03:06:07.965Z,2.33
2022-10-13T03:08:35.042Z,2.30
2022-10-13T03:11:01.396Z,2.20
2022-10-13T03:13:27.771Z,2.00
2022-10-13T03:15:54.093Z,2.23
2022-10-13T03:18:20.392Z,2.10
2022-10-13T03:20:58.824Z,2.10
2022-10-13T03:23:25.294Z,2.30
2022-10-13T03:25:51.647Z,2.27
2022-10-13T03:28:18.218Z,2.40
2022-10-13T03:30:44.593Z,2.30
2022-10-13T03:33:10.906Z,2.10
2022-10-13T03:35:37.307Z,2.13
2022-10-13T03:38:03.610Z,2.00
2022-10-13T03:40:29.906Z,2.30
2022-10-13T03:42:56.286Z,2.27
2022-10-13T03:45:22.756Z,2.00
2022-10-13T03:47:49.066Z,2.30
2022-10-13T03:50:15.395Z,2.20
2022-10-13T03:52:41.729Z,2.20
2022-10-13T03:55:08.160Z,2.00
2022-10-13T03:57:34.698Z,2.23
2022-10-13T04:00:01.569Z,2.10
2022-10-13T04:02:27.921Z,2.00
2022-10-13T04:04:54.218Z,2.33
2022-10-13T04:07:20.609Z,2.20
2022-10-13T04:09:46.920Z,2.13
2022-10-13T04:12:17.087Z,2.50
2022-10-13T04:14:46.136Z,2.23
2022-10-13T04:17:12.639Z,2.10
2022-10-13T04:19:38.938Z,2.10
2022-10-13T04:22:05.285Z,2.10
2022-10-13T04:24:31.581Z,2.07
2022-10-13T04:26:57.878Z,2.20
2022-10-13T04:29:24.177Z,2.13
2022-10-13T04:31:50.470Z,1.97
2022-10-13T04:34:16.762Z,2.30
2022-10-13T04:36:43.200Z,2.30
2022-10-13T04:39:09.495Z,2.60
2022-10-13T04:41:35.811Z,2.27
2022-10-13T04:44:02.305Z,2.50
2022-10-13T04:46:29.118Z,2.13
2022-10-13T04:48:56.392Z,2.37
2022-10-13T04:51:24.753Z,2.27
2022-10-13T04:53:55.912Z,2.50
2022-10-13T04:56:22.388Z,2.53
2022-10-13T04:58:49.441Z,2.30
2022-10-13T05:01:22.345Z,2.83
2022-10-13T05:03:55.154Z,2.27
2022-10-13T05:06:25.500Z,2.20
2022-10-13T05:08:51.810Z,1.90
2022-10-13T05:11:20.352Z,2.27
2022-10-13T05:13:47.811Z,2.20
2022-10-13T05:16:15.841Z,1.90
2022-10-13T05:18:42.623Z,2.20
2022-10-13T05:21:11.483Z,2.47
2022-10-13T05:23:38.797Z,2.30
2022-10-13T05:26:07.711Z,2.27
2022-10-13T05:28:34.207Z,2.20
2022-10-13T05:31:24.342Z,2.70
2022-10-13T05:33:51.993Z,2.93
2022-10-13T05:36:23.593Z,3.10
2022-10-13T05:38:54.616Z,2.60
2022-10-13T05:41:21.406Z,2.93
2022-10-13T05:43:48.194Z,2.80
2022-10-13T05:46:14.898Z,3.00
2022-10-13T05:48:41.220Z,2.97
2022-10-13T05:51:11.229Z,3.00
2022-10-13T05:53:40.258Z,3.20
2022-10-13T05:56:10.571Z,3.07
2022-10-13T05:58:43.066Z,2.97
2022-10-13T06:01:12.051Z,3.27
2022-10-13T06:03:39.814Z,3.67
2022-10-13T06:06:06.367Z,3.20
2022-10-13T06:08:32.683Z,2.87
2022-10-13T06:10:59.061Z,3.00
2022-10-13T06:13:25.375Z,3.13
2022-10-13T06:15:51.717Z,3.33
2022-10-13T06:18:18.094Z,3.07
2022-10-13T06:20:44.550Z,3.37
2022-10-13T06:23:10.874Z,3.00
2022-10-13T06:25:37.215Z,3.10
2022-10-13T06:28:03.671Z,2.90
2022-10-13T06:30:29.959Z,3.40
2022-10-13T06:32:56.374Z,3.40
2022-10-13T06:35:23.449Z,3.00
2022-10-13T06:37:50.135Z,3.40
2022-10-13T06:40:16.585Z,3.30
2022-10-13T06:42:42.878Z,3.00
2022-10-13T06:45:09.585Z,3.23
2022-10-13T06:47:35.891Z,3.20
2022-10-13T06:50:02.191Z,3.60
2022-10-13T06:52:28.484Z,3.00
2022-10-13T06:54:54.769Z,3.37
2022-10-13T06:57:21.207Z,2.93
2022-10-13T06:59:48.077Z,3.30
2022-10-13T07:02:14.368Z,3.00
2022-10-13T07:04:40.780Z,3.43
2022-10-13T07:07:07.131Z,3.00
2022-10-13T07:09:33.435Z,3.13
2022-10-13T07:11:59.720Z,3.00
2022-10-13T07:14:26.078Z,3.20
2022-10-13T07:16:52.373Z,3.20
2022-10-13T07:19:18.756Z,3.30
2022-10-13T07:21:45.095Z,3.23
2022-10-13T07:24:11.835Z,3.20
2022-10-13T07:26:38.239Z,3.27
2022-10-13T07:29:04.935Z,3.07
2022-10-13T07:31:31.270Z,3.30
2022-10-13T07:33:58.762Z,3.07
2022-10-13T07:36:25.859Z,3.47
2022-10-13T07:38:52.147Z,3.40
2022-10-13T07:41:18.500Z,3.40
2022-10-13T07:43:44.970Z,4.07
2022-10-13T07:46:13.263Z,3.80
2022-10-13T07:48:39.699Z,4.07
2022-10-13T07:51:07.526Z,3.80
2022-10-13T07:53:35.260Z,3.70
2022-10-13T07:56:06.746Z,3.50
2022-10-13T07:58:34.385Z,4.30
2022-10-13T08:01:01.868Z,3.87
2022-10-13T08:03:28.895Z,4.20
2022-10-13T08:05:55.640Z,4.70
2022-10-13T08:08:22.040Z,4.07
2022-10-13T08:10:48.390Z,4.33
2022-10-13T08:13:14.749Z,4.80
2022-10-13T08:15:41.884Z,4.73
2022-10-13T08:18:09.561Z,5.03
2022-10-13T08:20:43.333Z,5.13
2022-10-13T08:23:10.242Z,4.83
2022-10-13T08:25:38.752Z,4.37
2022-10-13T08:28:06.861Z,3.90
2022-10-13T08:30:33.469Z,3.63
2022-10-13T08:32:59.924Z,3.67
2022-10-13T08:35:26.329Z,4.17
2022-10-13T08:37:52.669Z,4.43
2022-10-13T08:40:20.859Z,3.60
2022-10-13T08:42:47.207Z,3.20
2022-10-13T08:45:40.332Z,4.17
2022-10-13T08:48:16.917Z,3.40
2022-10-13T08:50:44.488Z,4.23
2022-10-13T08:53:23.210Z,3.20
2022-10-13T08:55:52.750Z,3.40
2022-10-13T08:58:24.986Z,3.47
2022-10-13T09:01:00.147Z,3.00
2022-10-13T09:03:29.244Z,2.90
2022-10-13T09:06:15.045Z,3.33
2022-10-13T09:08:51.334Z,3.20
2022-10-13T09:11:17.634Z,3.30
2022-10-13T09:13:44.046Z,3.07
2022-10-13T09:16:10.434Z,2.90
2022-10-13T09:18:37.546Z,3.00
2022-10-13T09:21:30.155Z,2.70
2022-10-13T09:24:06.487Z,3.00
2022-10-13T09:26:37.067Z,3.00
2022-10-13T09:29:18.688Z,3.10
2022-10-13T09:31:45.247Z,3.20
2022-10-13T09:34:16.294Z,2.90
2022-10-13T09:37:03.437Z,3.03
2022-10-13T09:39:30.748Z,3.10
2022-10-13T09:42:20.590Z,2.90
2022-10-13T09:44:50.562Z,2.80
2022-10-13T09:47:25.187Z,3.20
2022-10-13T09:50:06.371Z,3.87
2022-10-13T09:52:34.605Z,3.20
2022-10-13T09:55:00.974Z,2.87
2022-10-13T09:57:42.652Z,3.20
2022-10-13T10:00:26.498Z,2.70
2022-10-13T10:03:01.788Z,2.93
2022-10-13T10:05:41.247Z,4.10
2022-10-13T10:08:33.735Z,3.90
2022-10-13T10:11:02.425Z,4.50
2022-10-13T10:13:28.812Z,4.47
2022-10-13T10:16:22.382Z,4.53
2022-10-13T10:18:52.809Z,3.47
2022-10-13T10:21:44.625Z,4.20
2022-10-13T10:24:43.243Z,5.30
2022-10-13T10:27:26.147Z,5.43
2022-10-13T10:30:01.880Z,5.97
2022-10-13T10:32:49.240Z,6.57
2022-10-13T10:35:29.474Z,5.85
2022-10-13T10:38:13.969Z,4.57
2022-10-13T10:41:12.095Z,3.63
2022-10-13T10:43:43.643Z,3.70
2022-10-13T10:46:25.902Z,3.97
2022-10-13T10:48:55.397Z,3.58
2022-10-13T10:51:31.009Z,6.90
2022-10-13T10:54:20.097Z,8.30
2022-10-13T10:56:54.910Z,8.87
2022-10-13T10:59:55.240Z,12.48
2022-10-13T11:02:44.150Z,11.18
2022-10-13T11:05:11.249Z,12.80
2022-10-13T11:07:43.689Z,12.70
2022-10-13T11:10:10.021Z,6.85
2022-10-13T11:12:48.131Z,8.23
2022-10-13T11:15:25.606Z,9.85
2022-10-13T11:17:52.140Z,8.52
2022-10-13T11:20:21.362Z,6.38
2022-10-13T11:23:07.863Z,7.93
2022-10-13T11:25:45.158Z,8.88
2022-10-13T11:28:20.464Z,11.68
2022-10-13T11:30:50.366Z,10.05
2022-10-13T11:33:39.214Z,9.85
2022-10-13T11:36:29.506Z,7.45
2022-10-13T11:39:23.553Z,7.78
2022-10-13T11:42:11.752Z,10.25
2022-10-13T11:44:43.914Z,10.50
2022-10-13T11:47:47.939Z,9.57
2022-10-13T11:50:37.927Z,9.75
2022-10-13T11:53:24.646Z,10.93
2022-10-13T11:55:51.953Z,10.95
2022-10-13T11:58:32.592Z,10.77
2022-10-13T12:01:01.108Z,25.35
2022-10-13T12:03:31.932Z,11.60
2022-10-13T12:06:31.994Z,11.35
2022-10-13T12:08:58.803Z,5.53
2022-10-13T12:11:28.058Z,8.20
2022-10-13T12:13:54.762Z,10.40
2022-10-13T12:16:21.450Z,9.68
2022-10-13T12:18:48.198Z,5.78
2022-10-13T12:21:22.864Z,15.77
2022-10-13T12:23:51.439Z,6.85
2022-10-13T12:26:20.298Z,8.98
2022-10-13T12:28:52.001Z,10.30
2022-10-13T12:31:26.031Z,7.90
2022-10-13T12:34:00.578Z,9.18
2022-10-13T12:36:30.815Z,8.02
2022-10-13T12:39:03.414Z,9.10
2022-10-13T12:41:32.944Z,6.78
2022-10-13T12:44:01.261Z,8.23
2022-10-13T12:46:40.273Z,7.90
2022-10-13T12:49:10.984Z,9.85
2022-10-13T12:51:37.544Z,7.35
2022-10-13T12:54:08.671Z,7.20
2022-10-13T12:56:35.060Z,7.45
2022-10-13T12:59:01.395Z,9.35
2022-10-13T13:01:34.520Z,9.07
2022-10-13T13:04:15.987Z,10.90
2022-10-13T13:07:02.138Z,11.60
2022-10-13T13:09:29.477Z,13.50
2022-10-13T13:12:16.074Z,11.57
2022-10-13T13:14:43.958Z,12.48
2022-10-13T13:17:45.423Z,11.98
2022-10-13T13:20:30.040Z,11.70
2022-10-13T13:22:56.683Z,12.88
2022-10-13T13:25:23.453Z,12.50
2022-10-13T13:27:49.896Z,12.55
2022-10-13T13:30:21.831Z,12.38
2022-10-13T13:32:48.243Z,12.75
2022-10-13T13:35:14.743Z,11.88
2022-10-13T13:37:49.684Z,11.90
2022-10-13T13:40:27.459Z,11.15
2022-10-13T13:42:54.391Z,11.95
2022-10-13T13:45:22.229Z,11.55
2022-10-13T13:47:48.605Z,11.20
2022-10-13T13:50:24.099Z,11.40
2022-10-13T13:52:50.441Z,11.50
2022-10-13T13:55:16.952Z,11.93
2022-10-13T13:57:43.873Z,11.52
2022-10-13T14:00:14.102Z,11.30
2022-10-13T14:02:40.673Z,11.52
2022-10-13T14:05:07.548Z,10.93
2022-10-13T14:07:33.983Z,11.55
2022-10-13T14:10:02.113Z,11.00
2022-10-13T14:12:30.522Z,11.07
2022-10-13T14:14:56.847Z,10.85
2022-10-13T14:17:23.172Z,10.98
2022-10-13T14:19:49.474Z,11.57
2022-10-13T14:22:15.822Z,11.43
2022-10-13T14:24:42.197Z,11.23
2022-10-13T14:27:11.244Z,11.70
2022-10-13T14:29:37.565Z,10.70
2022-10-13T14:32:04.197Z,10.90
2022-10-13T14:34:30.517Z,9.98
2022-10-13T14:36:56.818Z,10.85
2022-10-13T14:39:23.161Z,11.43
2022-10-13T14:41:49.515Z,11.02
2022-10-13T14:44:15.887Z,10.63
2022-10-13T14:46:42.258Z,11.73
2022-10-13T14:49:10.451Z,11.55
2022-10-13T14:51:36.970Z,11.30
2022-10-13T14:54:04.390Z,10.40
2022-10-13T14:56:30.964Z,11.32
2022-10-13T14:58:59.294Z,10.30
2022-10-13T15:01:26.047Z,10.48
2022-10-13T15:03:52.553Z,10.20
2022-10-13T15:06:21.420Z,10.13
2022-10-13T15:08:47.986Z,10.55
2022-10-13T15:11:15.043Z,10.93
2022-10-13T15:13:41.361Z,11.02
2022-10-13T15:16:11.953Z,11.63
2022-10-13T15:18:38.336Z,11.40
2022-10-13T15:21:04.681Z,12.93
2022-10-13T15:23:32.150Z,14.45
2022-10-13T15:26:00.174Z,18.77
2022-10-13T15:28:28.742Z,18.85
2022-10-13T15:30:55.452Z,21.80
2022-10-13T15:33:22.453Z,22.88
2022-10-13T15:35:52.313Z,23.10
2022-10-13T15:38:19.717Z,24.70
2022-10-13T15:40:46.761Z,24.45
2022-10-13T15:43:13.106Z,23.92
2022-10-13T15:45:39.801Z,21.33
2022-10-13T15:48:06.941Z,20.95
2022-10-13T15:50:34.130Z,21.30
2022-10-13T15:53:00.678Z,20.05
2022-10-13T15:55:28.506Z,18.52
2022-10-13T15:57:54.814Z,18.98
2022-10-13T16:00:21.169Z,17.65
2022-10-13T16:02:49.938Z,16.48
2022-10-13T16:05:16.305Z,18.42
2022-10-13T16:07:42.751Z,13.70
2022-10-13T16:10:11.875Z,13.70
2022-10-13T16:12:38.752Z,15.80
2022-10-13T16:15:06.432Z,14.35
2022-10-13T16:17:32.777Z,14.50
2022-10-13T16:19:59.075Z,19.83
2022-10-13T16:22:25.420Z,17.58
2022-10-13T16:24:51.742Z,18.13
2022-10-13T16:27:18.375Z,19.45
2022-10-13T16:29:44.678Z,21.33
2022-10-13T16:32:10.994Z,19.08
2022-10-13T16:34:37.865Z,21.67
2022-10-13T16:37:04.443Z,21.95
2022-10-13T16:39:30.765Z,23.45
2022-10-13T16:41:57.090Z,23.05
2022-10-13T16:44:23.462Z,23.35
2022-10-13T16:46:52.015Z,20.40
2022-10-13T16:49:18.368Z,20.55
2022-10-13T16:51:44.658Z,19.80
2022-10-13T16:54:10.996Z,21.58
2022-10-13T16:56:37.319Z,26.92
2022-10-13T16:59:05.436Z,24.52
2022-10-13T17:01:32.579Z,25.63
2022-10-13T17:03:59.162Z,22.05
2022-10-13T17:06:27.045Z,20.55
2022-10-13T17:08:53.378Z,20.63
2022-10-13T17:11:22.085Z,19.52
2022-10-13T17:13:48.798Z,22.48
2022-10-13T17:16:15.793Z,22.27
2022-10-13T17:18:42.516Z,28.70
2022-10-13T17:21:11.934Z,27.58
2022-10-13T17:23:38.264Z,29.25
2022-10-13T17:26:07.334Z,24.55
2022-10-13T17:28:34.789Z,25.67
2022-10-13T17:31:03.920Z,24.48
2022-10-13T17:33:32.867Z,26.25
2022-10-13T17:36:00.788Z,26.83
2022-10-13T17:38:27.810Z,25.92
2022-10-13T17:40:59.495Z,24.40
2022-10-13T17:43:26.238Z,26.60
2022-10-13T17:45:52.578Z,26.73
2022-10-13T17:48:22.929Z,28.13
2022-10-13T17:50:49.551Z,26.38
2022-10-13T17:53:15.940Z,26.60
2022-10-13T17:55:42.230Z,23.83
2022-10-13T17:58:08.567Z,26.33
2022-10-13T18:00:54.095Z,27.48
2022-10-13T18:03:21.480Z,25.73
2022-10-13T18:05:47.822Z,23.35
2022-10-13T18:08:14.142Z,24.60
2022-10-13T18:11:07.061Z,26.17
2022-10-13T18:13:26.722Z,24.52
2022-10-13T18:15:53.056Z,25.17
2022-10-13T18:18:19.451Z,25.70
2022-10-13T18:20:45.799Z,25.27
2022-10-13T18:23:12.158Z,26.52
2022-10-13T18:25:38.656Z,23.63
2022-10-13T18:28:04.938Z,23.33
2022-10-13T18:30:32.158Z,24.50
2022-10-13T18:32:58.460Z,22.45
2022-10-13T18:35:26.561Z,21.37
2022-10-13T18:37:56.302Z,23.25
2022-10-13T18:40:22.586Z,24.55
2022-10-13T18:42:54.227Z,23.63
2022-10-13T18:45:21.068Z,23.43
2022-10-13T18:47:51.054Z,22.85
2022-10-13T18:50:17.444Z,20.93
2022-10-13T18:52:43.758Z,21.17
2022-10-13T18:55:10.067Z,22.85
2022-10-13T18:57:37.854Z,22.07
2022-10-13T19:00:06.609Z,21.93
2022-10-13T19:02:33.363Z,20.50
2022-10-13T19:04:59.642Z,22.40
2022-10-13T19:07:25.944Z,19.00
2022-10-13T19:09:53.283Z,22.73
2022-10-13T19:12:19.589Z,19.97
2022-10-13T19:14:45.895Z,18.50
2022-10-13T19:17:12.217Z,19.43
2022-10-13T19:19:38.979Z,18.85
2022-10-13T19:22:07.490Z,20.63
2022-10-13T19:24:33.799Z,21.03
2022-10-13T19:27:00.122Z,22.15
2022-10-13T19:29:26.527Z,21.98
2022-10-13T19:31:52.850Z,21.80
2022-10-13T19:34:19.524Z,22.35
2022-10-13T19:36:46.590Z,21.38
2022-10-13T19:39:19.257Z,21.20
2022-10-13T19:41:46.654Z,21.33
2022-10-13T19:44:13.900Z,20.40
2022-10-13T19:46:41.906Z,21.10
2022-10-13T19:49:08.419Z,21.27
2022-10-13T19:51:34.938Z,20.93
2022-10-13T19:54:01.466Z,20.27
2022-10-13T19:56:31.411Z,20.20
2022-10-13T19:58:57.942Z,23.97
2022-10-13T20:01:24.331Z,19.33
2022-10-13T20:03:50.712Z,20.03
2022-10-13T20:06:17.959Z,20.07
2022-10-13T20:08:45.070Z,20.10
2022-10-13T20:11:22.205Z,19.67
2022-10-13T20:13:49.699Z,19.70
2022-10-13T20:16:18.364Z,19.90
2022-10-13T20:18:44.812Z,20.00
2022-10-13T20:21:12.447Z,20.13
2022-10-13T20:23:40.750Z,19.43
2022-10-13T20:26:11.829Z,19.30
2022-10-13T20:28:43.304Z,19.27
2022-10-13T20:31:12.525Z,19.57
2022-10-13T20:33:38.848Z,19.83
2022-10-13T20:36:07.542Z,18.90
2022-10-13T20:38:35.786Z,17.87
2022-10-13T20:41:15.355Z,18.07
2022-10-13T20:43:41.670Z,18.00
2022-10-13T20:46:08.430Z,18.80
2022-10-13T20:49:05.104Z,18.77
2022-10-13T20:51:24.043Z,17.87
2022-10-13T20:53:50.800Z,17.77
2022-10-13T20:56:22.303Z,17.10
2022-10-13T20:58:48.725Z,17.25
2022-10-13T21:01:17.927Z,16.97
2022-10-13T21:03:44.574Z,17.13
2022-10-13T21:06:12.963Z,16.80
2022-10-13T21:08:39.626Z,16.77
2022-10-13T21:11:09.386Z,15.00
2022-10-13T21:13:36.335Z,14.97
2022-10-13T21:16:07.423Z,15.20
2022-10-13T21:18:33.839Z,15.43
2022-10-13T21:21:05.174Z,15.70
2022-10-13T21:23:31.525Z,15.60
2022-10-13T21:26:00.898Z,15.10
2022-10-13T21:28:27.243Z,14.27
2022-10-13T21:31:04.661Z,14.53
2022-10-13T21:33:33.412Z,13.97
2022-10-13T21:36:05.643Z,14.03
2022-10-13T21:38:31.936Z,13.37
2022-10-13T21:40:58.231Z,15.67
2022-10-13T21:43:24.530Z,16.07
2022-10-13T21:45:50.834Z,15.83
2022-10-13T21:48:17.196Z,16.50
2022-10-13T21:50:43.496Z,15.77
2022-10-13T21:53:09.842Z,15.60
2022-10-13T21:55:36.147Z,15.53
2022-10-13T21:58:05.151Z,15.70
2022-10-13T22:00:33.182Z,14.80
2022-10-13T22:02:59.561Z,15.57
2022-10-13T22:05:25.874Z,15.57
2022-10-13T22:07:53.138Z,15.03
2022-10-13T22:10:19.447Z,14.27
2022-10-13T22:12:45.886Z,14.87
2022-10-13T22:15:12.216Z,15.90
2022-10-13T22:17:38.493Z,14.80
2022-10-13T22:20:05.103Z,15.17
2022-10-13T22:22:31.397Z,14.17
2022-10-13T22:24:57.699Z,14.80
2022-10-13T22:27:24.037Z,14.87
2022-10-13T22:29:50.350Z,14.60
2022-10-13T22:32:16.656Z,14.48
2022-10-13T22:34:42.955Z,15.27
2022-10-13T22:37:09.245Z,14.50
2022-10-13T22:39:35.615Z,14.43
2022-10-13T22:42:01.925Z,14.23
2022-10-13T22:44:28.251Z,14.17
2022-10-13T22:46:54.553Z,13.63
2022-10-13T22:49:20.834Z,13.20
2022-10-13T22:51:47.197Z,13.73
2022-10-13T22:54:13.552Z,13.53
2022-10-13T22:56:40.635Z,13.60
2022-10-13T22:59:08.027Z,13.27
2022-10-13T23:01:34.441Z,14.17
2022-10-13T23:04:00.809Z,14.13
2022-10-13T23:06:29.768Z,13.47
2022-10-13T23:08:56.214Z,13.65
2022-10-13T23:11:22.879Z,12.77
2022-10-13T23:13:49.187Z,12.40
2022-10-13T23:16:18.998Z,12.53
2022-10-13T23:18:45.339Z,13.83
2022-10-13T23:21:14.377Z,13.70
2022-10-13T23:23:40.734Z,12.30
2022-10-13T23:26:09.650Z,12.73
2022-10-13T23:28:36.086Z,12.83
2022-10-13T23:31:04.670Z,12.60
2022-10-13T23:33:31.039Z,12.70
2022-10-13T23:35:58.607Z,12.77
2022-10-13T23:38:26.362Z,12.13
2022-10-13T23:40:52.875Z,12.70
2022-10-13T23:43:19.507Z,12.17
2022-10-13T23:45:45.904Z,12.15
2022-10-13T23:48:12.240Z,11.70
2022-10-13T23:50:38.535Z,12.70
2022-10-13T23:53:04.854Z,12.30
2022-10-13T23:55:31.160Z,12.37
2022-10-13T23:57:57.527Z,12.17
